Time;durP1;ratioP1;P1;durP2;ratioP2;P2;SDS_P1;SDS_P2;PMS_P1;PMS_P2;Temp;Humidity;BMP_temperature;BMP_pressure;BME280_temperature;BME280_humidity;BME280_pressure;Samples;Min_cycle;Max_cycle;Signal;HPM_P1;HPM_P2
2022/08/23 00:01:17;;;;;;;11.05;7.18;;;20.90;1.00;;;;;;5074131;28;20525;-72
2022/08/23 00:03:42;;;;;;;14.43;7.53;;;20.90;1.00;;;;;;5074011;28;20279;-73
2022/08/23 00:06:09;;;;;;;11.98;8.02;;;21.00;1.00;;;;;;5072057;28;20691;-72
2022/08/23 00:08:36;;;;;;;13.85;7.10;;;21.00;1.00;;;;;;5073231;28;20323;-73
2022/08/23 00:11:03;;;;;;;12.27;6.97;;;21.10;1.00;;;;;;5073624;28;20165;-73
2022/08/23 00:13:29;;;;;;;11.48;6.78;;;21.10;1.00;;;;;;5073581;28;20209;-72
2022/08/23 00:15:55;;;;;;;10.88;6.18;;;21.10;1.00;;;;;;5073625;28;20171;-72
2022/08/23 00:18:23;;;;;;;13.00;7.70;;;21.10;1.00;;;;;;5073734;28;20291;-72
2022/08/23 00:20:49;;;;;;;12.25;7.13;;;21.00;1.00;;;;;;5073308;28;20160;-72
2022/08/23 00:23:15;;;;;;;11.88;6.57;;;21.00;1.00;;;;;;5073657;28;20177;-72
2022/08/23 00:25:40;;;;;;;11.48;6.75;;;21.20;1.00;;;;;;5072339;28;20171;-71
2022/08/23 00:28:07;;;;;;;12.85;7.70;;;21.20;1.00;;;;;;5073201;28;20501;-72
2022/08/23 00:30:34;;;;;;;13.30;7.65;;;21.30;1.00;;;;;;5072068;28;20177;-73
2022/08/23 00:33:00;;;;;;;11.90;6.95;;;21.30;1.00;;;;;;5073494;28;20278;-73
2022/08/23 00:35:25;;;;;;;11.57;7.32;;;21.40;1.00;;;;;;5073080;28;20243;-73
2022/08/23 00:37:51;;;;;;;13.15;7.43;;;21.50;1.00;;;;;;5073702;28;20173;-72
2022/08/23 00:40:18;;;;;;;13.27;7.85;;;21.50;1.00;;;;;;5072223;28;20195;-71
2022/08/23 00:48:46;;;;;;;13.05;6.78;;;21.50;1.00;;;;;;5073332;28;20171;-72
2022/08/23 00:51:21;;;;;;;12.40;6.80;;;21.40;1.00;;;;;;5071813;28;20573;-72
2022/08/23 00:53:51;;;;;;;11.20;7.70;;;21.40;1.00;;;;;;5073338;28;20294;-73
2022/08/23 00:56:18;;;;;;;10.95;6.85;;;21.40;1.00;;;;;;5073255;28;20214;-73
2022/08/23 00:58:45;;;;;;;10.98;6.75;;;21.30;1.00;;;;;;5073161;28;20168;-73
2022/08/23 01:01:12;;;;;;;14.63;8.13;;;21.30;1.00;;;;;;5073038;28;20176;-73
2022/08/23 01:03:42;;;;;;;11.45;8.10;;;21.40;1.00;;;;;;5073272;28;20229;-72
2022/08/23 01:06:10;;;;;;;14.77;8.45;;;21.30;1.00;;;;;;5072789;28;20200;-72
2022/08/23 01:08:38;;;;;;;17.10;8.63;;;21.30;1.00;;;;;;5072926;28;20734;-72
2022/08/23 01:11:21;;;;;;;16.63;9.25;;;21.30;1.00;;;;;;5073232;28;20611;-72
2022/08/23 01:13:59;;;;;;;13.18;8.40;;;21.30;1.00;;;;;;5073022;28;20215;-72
2022/08/23 01:16:44;;;;;;;19.40;8.57;;;21.20;1.00;;;;;;5073292;28;20165;-72
2022/08/23 01:19:16;;;;;;;13.40;7.97;;;21.10;1.00;;;;;;5072880;28;20183;-72
2022/08/23 01:21:56;;;;;;;19.45;8.68;;;21.10;1.00;;;;;;5072925;28;20184;-72
2022/08/23 01:24:22;;;;;;;15.55;8.88;;;21.10;1.00;;;;;;5073086;28;20196;-72
2022/08/23 01:26:49;;;;;;;17.92;8.80;;;21.10;1.00;;;;;;5073016;28;20187;-72
2022/08/23 01:29:16;;;;;;;14.48;8.82;;;21.10;1.00;;;;;;5073054;28;20204;-72
2022/08/23 01:31:42;;;;;;;15.90;9.18;;;21.00;1.00;;;;;;5072918;28;20168;-72
2022/08/23 01:34:11;;;;;;;13.05;9.15;;;20.80;1.00;;;;;;5071104;28;20691;-72
2022/08/23 01:36:37;;;;;;;17.17;8.60;;;20.70;1.00;;;;;;5071252;28;20200;-72
2022/08/23 01:39:07;;;;;;;15.25;9.32;;;20.50;1.00;;;;;;5071702;28;20219;-72
2022/08/23 01:41:33;;;;;;;15.48;8.98;;;20.50;1.00;;;;;;5075480;28;20241;-72
2022/08/23 01:43:59;;;;;;;17.55;8.07;;;20.60;1.00;;;;;;5076812;28;20160;-72
2022/08/23 01:46:25;;;;;;;15.80;8.30;;;20.70;1.00;;;;;;5076797;28;20274;-72
2022/08/23 01:48:54;;;;;;;15.55;8.02;;;20.80;1.00;;;;;;5076308;28;20620;-72
2022/08/23 01:51:20;;;;;;;13.77;8.05;;;20.90;1.00;;;;;;5076548;28;20172;-72
2022/08/23 01:53:46;;;;;;;16.13;9.13;;;20.90;1.00;;;;;;5076476;28;20204;-72
2022/08/23 01:56:14;;;;;;;16.40;9.50;;;20.90;1.00;;;;;;5076578;28;20191;-72
2022/08/23 01:58:39;;;;;;;15.80;10.05;;;21.00;1.00;;;;;;5076480;28;20173;-72
2022/08/23 02:01:05;;;;;;;15.00;9.10;;;21.00;1.00;;;;;;5075409;28;20256;-72
2022/08/23 02:03:32;;;;;;;18.70;8.40;;;21.00;1.00;;;;;;5076049;28;20177;-72
2022/08/23 02:05:58;;;;;;;18.40;9.25;;;21.00;1.00;;;;;;5076193;28;20176;-72
2022/08/23 02:11:12;;;;;;;14.57;9.55;;;21.00;1.00;;;;;;5076340;28;20677;-72
2022/08/23 02:13:38;;;;;;;14.10;9.70;;;20.90;1.00;;;;;;5076302;28;20216;-73
2022/08/23 02:16:04;;;;;;;15.25;10.25;;;20.90;1.00;;;;;;5076133;28;20187;-72
2022/08/23 02:18:30;;;;;;;14.63;9.60;;;20.70;1.00;;;;;;5075676;28;20687;-71
2022/08/23 02:20:55;;;;;;;16.58;9.80;;;20.50;1.00;;;;;;5074662;28;20236;-72
2022/08/23 02:23:21;;;;;;;22.90;15.40;;;20.50;1.00;;;;;;5076001;28;20225;-72
2022/08/23 02:25:50;;;;;;;15.32;9.57;;;20.60;1.00;;;;;;5075976;28;20264;-72
2022/08/23 02:28:16;;;;;;;20.05;11.02;;;20.50;1.00;;;;;;5075907;28;20169;-72
2022/08/23 02:30:44;;;;;;;16.55;10.90;;;20.50;1.00;;;;;;5075803;28;20171;-72
2022/08/23 02:33:09;;;;;;;18.30;10.80;;;20.40;1.20;;;;;;5075709;28;20287;-72
2022/08/23 02:35:35;;;;;;;22.08;11.45;;;20.40;4.10;;;;;;5075630;28;20318;-72
2022/08/23 02:38:06;;;;;;;15.63;11.57;;;20.40;3.40;;;;;;5075887;28;20172;-72
2022/08/23 02:40:32;;;;;;;19.05;11.10;;;20.50;1.00;;;;;;5075620;28;20620;-72
2022/08/23 02:42:58;;;;;;;24.55;10.35;;;20.40;1.00;;;;;;5074411;28;20623;-71
2022/08/23 02:45:25;;;;;;;18.52;10.43;;;20.40;1.80;;;;;;5075145;28;20180;-71
2022/08/23 02:47:51;;;;;;;16.63;11.02;;;20.30;7.10;;;;;;5075499;28;20283;-72
2022/08/23 02:50:18;;;;;;;18.90;11.02;;;20.30;8.30;;;;;;5075410;28;20165;-71
2022/08/23 02:52:44;;;;;;;16.85;11.18;;;20.20;9.20;;;;;;5075008;28;20219;-72
2022/08/23 02:55:10;;;;;;;20.63;11.30;;;20.20;12.10;;;;;;5075486;28;20623;-72
2022/08/23 02:57:38;;;;;;;18.88;10.40;;;20.10;16.80;;;;;;5075187;28;20233;-71
2022/08/23 03:00:06;;;;;;;21.85;11.10;;;19.90;19.30;;;;;;5074871;28;20180;-71
2022/08/23 03:02:32;;;;;;;22.40;11.60;;;20.00;20.70;;;;;;5075423;28;20261;-71
2022/08/23 03:04:58;;;;;;;16.30;10.60;;;20.00;18.00;;;;;;5075088;28;20211;-72
2022/08/23 03:07:24;;;;;;;19.15;10.52;;;20.00;17.50;;;;;;5075130;28;20199;-71
2022/08/23 03:09:49;;;;;;;17.80;10.40;;;20.00;17.60;;;;;;5074995;28;20224;-71
2022/08/23 03:12:15;;;;;;;18.17;11.23;;;20.00;17.50;;;;;;5073770;28;20670;-71
2022/08/23 03:14:41;;;;;;;18.65;10.35;;;20.00;15.80;;;;;;5074653;28;20230;-71
2022/08/23 03:17:06;;;;;;;17.05;10.13;;;20.00;18.80;;;;;;5075196;28;20172;-71
2022/08/23 03:19:32;;;;;;;15.00;10.13;;;19.90;21.60;;;;;;5075037;28;20562;-71
2022/08/23 03:21:58;;;;;;;18.77;10.20;;;19.80;25.10;;;;;;5074815;28;20188;-71
2022/08/23 03:24:24;;;;;;;16.15;9.63;;;19.80;24.70;;;;;;5074871;28;20550;-71
2022/08/23 03:26:50;;;;;;;16.33;10.27;;;19.90;22.30;;;;;;5074839;28;20567;-72
2022/08/23 03:29:16;;;;;;;20.17;10.05;;;19.80;23.90;;;;;;5072979;28;20199;-71
2022/08/23 03:31:42;;;;;;;18.27;9.80;;;19.70;26.60;;;;;;5074625;28;20177;-72
2022/08/23 03:34:08;;;;;;;16.13;9.85;;;19.70;25.80;;;;;;5074641;28;20282;-72
2022/08/23 03:36:34;;;;;;;13.75;9.38;;;19.70;27.10;;;;;;5074249;28;20212;-71
2022/08/23 03:39:00;;;;;;;16.95;9.50;;;19.60;30.50;;;;;;5074555;28;20172;-72
2022/08/23 03:41:26;;;;;;;17.35;9.60;;;19.60;32.70;;;;;;5074114;28;20173;-72
2022/08/23 03:43:52;;;;;;;16.83;9.45;;;19.60;31.60;;;;;;5074219;28;20168;-72
2022/08/23 03:46:24;;;;;;;14.35;9.25;;;19.60;32.10;;;;;;5074087;28;20171;-71
2022/08/23 03:48:55;;;;;;;14.82;8.98;;;19.70;32.30;;;;;;5074277;28;20169;-72
2022/08/23 03:51:22;;;;;;;17.95;10.13;;;19.70;33.10;;;;;;5074439;28;20176;-71
2022/08/23 03:53:49;;;;;;;20.08;10.23;;;19.70;30.00;;;;;;5073854;28;20208;-71
2022/08/23 03:56:25;;;;;;;18.30;9.40;;;19.70;30.20;;;;;;5073368;28;20172;-71
2022/08/23 03:58:52;;;;;;;18.20;9.45;;;19.80;28.60;;;;;;5073667;28;20230;-71
2022/08/23 04:01:17;;;;;;;14.52;9.80;;;19.70;32.10;;;;;;5073895;28;20649;-71
2022/08/23 04:03:43;;;;;;;17.70;9.38;;;19.70;29.70;;;;;;5072791;28;20199;-71
2022/08/23 04:06:10;;;;;;;14.45;9.63;;;19.60;34.40;;;;;;5073619;28;20173;-71
2022/08/23 04:08:36;;;;;;;19.25;11.07;;;19.70;34.10;;;;;;5073015;28;20255;-72
2022/08/23 04:11:02;;;;;;;17.02;9.60;;;19.70;33.80;;;;;;5072027;28;20200;-71
2022/08/23 04:13:28;;;;;;;19.85;9.68;;;19.60;33.70;;;;;;5073309;28;20204;-71
2022/08/23 04:15:55;;;;;;;17.55;9.38;;;19.60;36.00;;;;;;5072196;28;20183;-71
2022/08/23 04:18:21;;;;;;;17.02;10.30;;;19.50;39.70;;;;;;5071904;28;20179;-71
2022/08/23 04:20:48;;;;;;;15.23;9.73;;;19.50;39.60;;;;;;5073476;28;20164;-72
2022/08/23 04:23:13;;;;;;;16.55;9.50;;;19.50;39.80;;;;;;5073111;28;20177;-71
2022/08/23 04:25:42;;;;;;;13.73;9.07;;;19.40;43.90;;;;;;5073421;28;20169;-72
2022/08/23 04:28:07;;;;;;;18.15;10.18;;;19.30;48.70;;;;;;5071736;28;20632;-71
2022/08/23 04:30:33;;;;;;;20.92;9.95;;;19.10;55.50;;;;;;5073240;28;20172;-72
2022/08/23 04:32:59;;;;;;;22.42;9.80;;;19.10;57.60;;;;;;5072888;28;20210;-71
2022/08/23 04:35:25;;;;;;;22.92;10.07;;;19.10;56.80;;;;;;5072872;28;20255;-73
2022/08/23 04:37:51;;;;;;;16.27;9.88;;;19.10;58.00;;;;;;5071579;28;20226;-72
2022/08/23 04:43:01;;;;;;;15.18;10.43;;;19.00;60.00;;;;;;5073194;28;20175;-71
2022/08/23 04:45:28;;;;;;;17.50;9.98;;;19.10;60.50;;;;;;5071284;28;20586;-71
2022/08/23 04:47:54;;;;;;;18.15;10.15;;;19.10;58.00;;;;;;5072745;28;20267;-71
2022/08/23 04:50:20;;;;;;;17.88;10.43;;;19.20;54.40;;;;;;5071656;28;20488;-71
2022/08/23 04:52:46;;;;;;;17.58;10.18;;;19.00;56.90;;;;;;5072657;28;20208;-72
2022/08/23 04:55:13;;;;;;;15.38;9.85;;;19.10;59.50;;;;;;5072559;28;20169;-72
2022/08/23 04:57:41;;;;;;;21.25;9.80;;;19.20;56.80;;;;;;5072440;28;20180;-72
2022/08/23 05:00:10;;;;;;;18.77;10.45;;;19.20;53.40;;;;;;5072896;28;20164;-72
2022/08/23 05:02:37;;;;;;;22.90;10.68;;;19.20;53.40;;;;;;5072592;28;20168;-71
2022/08/23 05:05:03;;;;;;;19.63;10.63;;;19.20;52.30;;;;;;5072720;28;20175;-72
2022/08/23 05:07:30;;;;;;;17.88;10.02;;;19.20;51.90;;;;;;5072823;28;20168;-71
2022/08/23 05:09:56;;;;;;;18.17;10.20;;;19.30;48.70;;;;;;5072249;28;20220;-71
2022/08/23 05:12:21;;;;;;;19.23;10.30;;;19.30;50.10;;;;;;5070365;28;20168;-71
2022/08/23 05:14:47;;;;;;;18.60;10.10;;;19.40;48.20;;;;;;5074511;28;20168;-72
2022/08/23 05:17:13;;;;;;;16.27;10.23;;;19.40;46.50;;;;;;5077754;28;20199;-72
2022/08/23 05:19:38;;;;;;;17.77;10.50;;;19.40;47.00;;;;;;5079090;28;20311;-72
2022/08/23 05:22:04;;;;;;;18.00;9.68;;;19.70;53.00;;;;;;5079317;28;20184;-72
2022/08/23 05:24:30;;;;;;;21.30;9.63;;;20.40;30.20;;;;;;5077814;28;20535;-72
2022/08/23 05:26:55;;;;;;;18.15;9.70;;;21.50;1.00;;;;;;5078659;28;20169;-73
2022/08/23 05:29:21;;;;;;;19.77;9.43;;;22.90;1.00;;;;;;5079367;28;20648;-72
2022/08/23 05:31:47;;;;;;;21.50;9.43;;;24.10;1.00;;;;;;5077299;28;20204;-73
2022/08/23 05:34:13;;;;;;;14.98;8.93;;;25.20;1.00;;;;;;5078525;28;20208;-72
2022/08/23 05:36:38;;;;;;;14.90;8.63;;;25.80;99.90;;;;;;5079077;28;20673;-74
2022/08/23 05:39:05;;;;;;;14.60;8.70;;;26.60;1.00;;;;;;5078991;28;20168;-74
2022/08/23 05:41:31;;;;;;;17.42;9.10;;;27.60;1.00;;;;;;5078284;28;20184;-74
2022/08/23 05:43:57;;;;;;;15.27;8.05;;;28.70;99.90;;;;;;5079213;28;20627;-74
2022/08/23 05:46:22;;;;;;;19.02;9.10;;;29.60;1.00;;;;;;5078997;28;20252;-74
2022/08/23 05:48:50;;;;;;;21.08;9.00;;;30.50;1.00;;;;;;5078637;28;20183;-74
2022/08/23 05:51:24;;;;;;;16.27;7.95;;;31.30;99.90;;;;;;5078440;28;20164;-75
2022/08/23 05:53:51;;;;;;;15.40;7.28;;;32.00;99.90;;;;;;5078098;28;20700;-76
2022/08/23 05:56:21;;;;;;;16.60;8.35;;;33.10;99.90;;;;;;5078986;28;20628;-75
2022/08/23 05:58:48;;;;;;;16.95;8.05;;;33.70;99.90;;;;;;5078635;28;20176;-75
2022/08/23 06:01:14;;;;;;;18.60;8.68;;;34.00;99.90;;;;;;5076963;28;20226;-76
2022/08/23 06:03:41;;;;;;;21.15;8.90;;;33.50;99.90;;;;;;5078591;28;20251;-76
2022/08/23 06:06:07;;;;;;;19.73;9.27;;;32.50;99.90;;;;;;5078412;28;20218;-77
2022/08/23 06:08:34;;;;;;;16.42;8.75;;;31.50;99.90;;;;;;5077425;28;20681;-76
2022/08/23 06:11:04;;;;;;;16.58;8.55;;;31.00;99.90;;;;;;5078743;28;20172;-76
2022/08/23 06:13:31;;;;;;;15.32;8.30;;;31.30;99.90;;;;;;5078979;28;20235;-76
2022/08/23 06:15:57;;;;;;;18.50;8.60;;;32.10;99.90;;;;;;5078231;28;20180;-77
2022/08/23 06:18:27;;;;;;;17.67;8.43;;;33.50;99.90;;;;;;5078413;28;20242;-78
2022/08/23 06:21:04;;;;;;;18.02;8.23;;;33.80;99.90;;;;;;5078599;28;20593;-77
2022/08/23 06:23:31;;;;;;;14.52;8.35;;;35.30;99.90;;;;;;5078138;28;20252;-78
2022/08/23 06:25:57;;;;;;;16.90;8.77;;;36.20;99.90;;;;;;5076851;28;20230;-78
2022/08/23 06:28:23;;;;;;;15.43;7.30;;;37.20;98.50;;;;;;5074126;28;20204;-77
2022/08/23 06:30:49;;;;;;;15.90;7.70;;;36.70;82.80;;;;;;5075470;28;20227;-77
2022/08/23 06:33:15;;;;;;;10.93;7.13;;;37.40;72.70;;;;;;5074584;28;20664;-77
2022/08/23 06:35:40;;;;;;;20.05;6.75;;;37.10;58.10;;;;;;5073964;28;20176;-77
2022/08/23 06:38:06;;;;;;;15.00;7.78;;;37.60;53.00;;;;;;5074803;28;20523;-77
2022/08/23 06:40:34;;;;;;;15.13;6.93;;;37.70;44.70;;;;;;5074340;28;20305;-77
2022/08/23 06:42:59;;;;;;;10.32;5.82;;;36.60;42.90;;;;;;5074722;28;20248;-77
2022/08/23 06:45:25;;;;;;;11.80;5.32;;;36.60;42.70;;;;;;5075229;28;20507;-77
2022/08/23 06:47:51;;;;;;;10.68;5.88;;;37.30;42.90;;;;;;5074798;28;20180;-77
2022/08/23 06:50:18;;;;;;;11.15;5.97;;;38.20;33.90;;;;;;5075140;28;20233;-77
2022/08/23 06:52:47;;;;;;;8.57;6.25;;;38.90;28.50;;;;;;5074235;28;20705;-77
2022/08/23 06:55:13;;;;;;;8.85;6.35;;;39.10;23.50;;;;;;5074368;28;20292;-78
2022/08/23 06:57:38;;;;;;;13.52;6.88;;;38.60;20.90;;;;;;5074773;28;20631;-77
2022/08/23 07:00:05;;;;;;;6.70;4.63;;;38.70;18.60;;;;;;5074284;28;20258;-76
2022/08/23 07:02:31;;;;;;;15.23;5.53;;;38.10;17.20;;;;;;5073988;28;20226;-77
2022/08/23 07:04:57;;;;;;;7.82;4.43;;;38.50;15.50;;;;;;5074228;28;20168;-77
2022/08/23 07:07:23;;;;;;;7.90;4.30;;;37.00;17.90;;;;;;5074336;28;20176;-78
2022/08/23 07:09:48;;;;;;;7.20;3.92;;;37.30;15.20;;;;;;5081041;28;20226;-75
2022/08/23 07:12:15;;;;;;;6.82;4.00;;;37.20;19.20;;;;;;5094170;28;20175;-77
2022/08/23 07:14:41;;;;;;;11.77;4.28;;;36.80;20.80;;;;;;5087757;28;20198;-77
2022/08/23 07:17:08;;;;;;;8.95;3.80;;;36.80;21.10;;;;;;5102417;28;20209;-76
2022/08/23 07:19:34;;;;;;;10.65;4.55;;;37.20;19.70;;;;;;5097309;28;20178;-76
2022/08/23 07:22:02;;;;;;;7.20;4.10;;;37.70;17.90;;;;;;5107351;28;20186;-76
2022/08/23 07:24:29;;;;;;;6.63;4.20;;;38.30;14.40;;;;;;5105846;28;20175;-75
2022/08/23 07:26:54;;;;;;;7.68;4.13;;;38.50;13.50;;;;;;5080317;28;20191;-75
2022/08/23 07:29:21;;;;;;;8.00;4.03;;;38.00;8.80;;;;;;5076725;28;20176;-75
2022/08/23 07:31:50;;;;;;;10.10;3.67;;;37.50;12.60;;;;;;5091603;28;20163;-75
2022/08/23 07:34:16;;;;;;;9.45;4.63;;;38.10;12.40;;;;;;5088212;28;20265;-75
2022/08/23 07:36:43;;;;;;;7.63;3.53;;;38.20;7.40;;;;;;5088125;28;20665;-75
2022/08/23 07:39:10;;;;;;;7.25;3.38;;;38.20;7.30;;;;;;5098567;28;20634;-75
2022/08/23 07:41:37;;;;;;;9.35;3.70;;;37.50;6.90;;;;;;5112075;28;20166;-76
2022/08/23 07:44:07;;;;;;;8.48;3.20;;;37.00;9.20;;;;;;5084784;28;20199;-76
2022/08/23 07:46:34;;;;;;;10.43;3.78;;;37.50;12.90;;;;;;5085711;28;20186;-76
2022/08/23 07:49:00;;;;;;;6.57;3.53;;;38.40;7.70;;;;;;5101287;28;20175;-75
2022/08/23 07:51:28;;;;;;;5.78;3.45;;;38.30;5.20;;;;;;5088876;28;20171;-75
2022/08/23 07:53:54;;;;;;;7.40;3.50;;;39.10;1.20;;;;;;5102626;28;20271;-74
2022/08/23 07:56:20;;;;;;;6.63;3.40;;;39.50;1.00;;;;;;5105825;28;20653;-75
2022/08/23 07:58:46;;;;;;;9.35;4.00;;;39.10;1.00;;;;;;5103634;28;20188;-75
2022/08/23 08:01:23;;;;;;;9.30;3.60;;;39.60;1.00;;;;;;5098744;28;20199;-75
2022/08/23 08:03:53;;;;;;;6.20;3.72;;;40.60;1.00;;;;;;5083947;28;20265;-77
2022/08/23 08:06:22;;;;;;;8.27;3.58;;;41.00;1.00;;;;;;5104431;28;20199;-76
2022/08/23 08:08:49;;;;;;;7.97;3.35;;;40.90;1.00;;;;;;5103295;28;20268;-75
2022/08/23 08:11:17;;;;;;;7.43;3.53;;;40.90;1.00;;;;;;5097815;28;20167;-75
2022/08/23 08:13:45;;;;;;;11.20;3.15;;;40.60;1.00;;;;;;5087472;28;20215;-75
2022/08/23 08:16:22;;;;;;;7.70;3.08;;;40.70;1.00;;;;;;5107354;28;20247;-75
2022/08/23 08:18:48;;;;;;;10.40;3.90;;;40.40;1.00;;;;;;5086350;28;20179;-75
2022/08/23 08:21:15;;;;;;;8.73;3.35;;;41.00;1.00;;;;;;5105983;28;20659;-75
2022/08/23 08:23:41;;;;;;;9.60;3.90;;;39.40;1.00;;;;;;5093006;28;20178;-75
2022/08/23 08:26:07;;;;;;;7.78;3.30;;;38.90;1.00;;;;;;5097353;28;20167;-75
2022/08/23 08:28:35;;;;;;;14.40;3.65;;;39.00;1.00;;;;;;5101777;28;20262;-75
2022/08/23 08:31:01;;;;;;;5.85;3.03;;;39.50;1.00;;;;;;5103011;28;20331;-74
2022/08/23 08:33:28;;;;;;;7.93;3.22;;;40.10;1.00;;;;;;5093393;28;20203;-74
2022/08/23 08:35:54;;;;;;;6.03;2.53;;;40.30;1.00;;;;;;5089379;28;20170;-75
2022/08/23 08:38:20;;;;;;;4.90;2.78;;;39.50;1.00;;;;;;5080481;28;20255;-75
2022/08/23 08:40:49;;;;;;;8.10;2.92;;;39.40;1.00;;;;;;5087482;28;20223;-75
2022/08/23 08:43:33;;;;;;;4.22;2.55;;;39.50;1.00;;;;;;5085831;28;20172;-75
2022/08/23 08:46:07;;;;;;;7.28;2.97;;;39.90;1.00;;;;;;5106787;28;20186;-75
2022/08/23 08:48:47;;;;;;;7.00;2.70;;;39.40;1.00;;;;;;5097819;28;20249;-75
2022/08/23 08:51:27;;;;;;;5.80;2.42;;;38.90;1.00;;;;;;5101138;28;20328;-74
2022/08/23 08:53:55;;;;;;;5.55;2.60;;;38.70;1.00;;;;;;5090600;28;20243;-74
2022/08/23 08:56:28;;;;;;;7.90;3.03;;;36.90;1.00;;;;;;5108360;28;20649;-76
2022/08/23 08:59:00;;;;;;;10.65;3.08;;;35.10;1.00;;;;;;5101039;28;20185;-75
2022/08/23 09:01:27;;;;;;;7.10;3.38;;;34.70;1.00;;;;;;5098539;28;20183;-74
2022/08/23 09:03:55;;;;;;;5.30;2.80;;;34.70;11.90;;;;;;5096238;28;20191;-76
2022/08/23 09:06:58;;;;;;;4.45;2.65;;;34.20;14.40;;;;;;5104239;28;20174;-77
2022/08/23 09:09:39;;;;;;;4.10;2.50;;;33.10;36.80;;;;;;5097554;28;20208;-77
2022/08/23 09:12:36;;;;;;;8.48;2.78;;;32.80;82.00;;;;;;5093275;28;20252;-76
2022/08/23 09:15:13;;;;;;;7.45;3.22;;;33.20;85.40;;;;;;5101661;28;20227;-77
2022/08/23 09:17:43;;;;;;;6.50;2.55;;;32.90;99.90;;;;;;5105111;28;20167;-77
2022/08/23 09:20:12;;;;;;;3.05;2.50;;;33.40;99.90;;;;;;5088796;28;20179;-77
2022/08/23 09:22:47;;;;;;;8.10;3.05;;;33.20;99.90;;;;;;5094233;28;20630;-77
2022/08/23 09:25:15;;;;;;;4.97;3.17;;;32.70;99.90;;;;;;5089676;28;20199;-77
2022/08/23 09:27:42;;;;;;;8.15;3.63;;;32.50;99.90;;;;;;5085159;28;20536;-77
2022/08/23 09:30:10;;;;;;;6.78;3.30;;;32.70;99.90;;;;;;5107359;28;20275;-77
2022/08/23 09:32:38;;;;;;;8.43;3.70;;;32.50;99.90;;;;;;5105354;28;20599;-77
2022/08/23 09:35:06;;;;;;;5.93;3.55;;;32.80;99.90;;;;;;5101543;28;20202;-76
2022/08/23 09:38:23;;;;;;;13.10;3.85;;;32.40;99.90;;;;;;5093752;28;20164;-77
2022/08/23 09:40:50;;;;;;;6.38;3.97;;;32.00;99.90;;;;;;5004183;28;20174;-78
2022/08/23 09:43:27;;;;;;;9.45;4.93;;;32.10;99.90;;;;;;5021163;28;20182;-77
2022/08/23 09:45:58;;;;;;;9.88;5.07;;;31.70;99.90;;;;;;5011890;28;20194;-77
2022/08/23 09:48:39;;;;;;;10.85;4.55;;;32.00;99.90;;;;;;5021804;28;20586;-77
2022/08/23 09:51:16;;;;;;;6.00;4.65;;;31.40;99.90;;;;;;5018946;28;20179;-77
2022/08/23 09:53:48;;;;;;;5.95;3.78;;;31.70;99.90;;;;;;5009475;28;20206;-76
2022/08/23 09:56:21;;;;;;;12.00;4.20;;;32.70;99.90;;;;;;4998306;28;20217;-77
2022/08/23 09:58:49;;;;;;;4.55;4.05;;;32.80;99.90;;;;;;5021214;28;20197;-77
2022/08/23 10:01:25;;;;;;;8.27;4.43;;;32.80;99.90;;;;;;5015923;28;20182;-77
2022/08/23 10:04:09;;;;;;;4.07;3.47;;;32.80;99.90;;;;;;5003739;28;20214;-77
2022/08/23 10:06:35;;;;;;;3.47;2.45;;;33.50;99.90;;;;;;5004146;28;20261;-77
2022/08/23 10:09:04;;;;;;;3.13;2.35;;;34.30;99.90;;;;;;5023214;28;20757;-77
2022/08/23 10:11:44;;;;;;;3.35;2.20;;;34.20;99.90;;;;;;5055629;28;20180;-77
2022/08/23 10:14:18;;;;;;;6.28;2.58;;;34.00;99.90;;;;;;5074603;28;21350;-77
2022/08/23 10:17:09;;;;;;;3.53;1.77;;;34.00;99.90;;;;;;5087652;28;20299;-77
2022/08/23 10:20:01;;;;;;;4.28;2.10;;;34.90;99.90;;;;;;5089949;28;20168;-77
2022/08/23 10:22:35;;;;;;;2.97;2.00;;;35.10;84.50;;;;;;5064617;28;20297;-76
2022/08/23 10:25:23;;;;;;;4.05;2.28;;;34.70;91.10;;;;;;5085482;28;20179;-78
2022/08/23 10:31:20;;;;;;;1.70;1.60;;;35.60;68.50;;;;;;5074908;28;20233;-78
2022/08/23 10:34:00;;;;;;;2.60;1.80;;;35.70;58.00;;;;;;5076762;28;20269;-78
2022/08/23 10:36:42;;;;;;;1.90;1.70;;;35.90;59.00;;;;;;5064296;28;20217;-77
2022/08/23 10:39:28;;;;;;;5.22;1.75;;;36.60;54.10;;;;;;5079717;28;20208;-77
2022/08/23 10:42:12;;;;;;;1.85;1.75;;;35.40;51.00;;;;;;5091115;28;20193;-77
2022/08/23 10:44:57;;;;;;;2.83;1.50;;;34.60;72.50;;;;;;5081081;28;20253;-78
2022/08/23 10:48:03;;;;;;;3.72;1.50;;;34.20;86.90;;;;;;5081531;28;20205;-77
2022/08/23 10:50:44;;;;;;;3.28;1.30;;;33.20;99.90;;;;;;5064999;28;20220;-76
2022/08/23 10:53:14;;;;;;;2.58;1.20;;;33.00;99.90;;;;;;5083604;28;20204;-77
2022/08/23 10:56:22;;;;;;;2.42;1.50;;;33.20;99.90;;;;;;5089892;28;20172;-77
2022/08/23 10:59:00;;;;;;;2.15;1.40;;;33.20;99.90;;;;;;5067022;28;20558;-77
2022/08/23 11:01:49;;;;;;;2.30;1.08;;;33.00;99.90;;;;;;5079747;28;20172;-78
2022/08/23 11:04:50;;;;;;;2.15;1.10;;;32.80;99.90;;;;;;5062700;28;20199;-78
2022/08/23 11:07:25;;;;;;;1.58;1.40;;;33.20;99.90;;;;;;5056911;28;20184;-78
2022/08/23 11:10:05;;;;;;;1.40;1.00;;;32.60;99.90;;;;;;5092450;28;20215;-78
2022/08/23 11:12:35;;;;;;;1.30;0.90;;;31.80;99.90;;;;;;5094341;28;20259;-77
2022/08/23 11:15:06;;;;;;;2.80;0.80;;;32.10;99.90;;;;;;5093357;28;20168;-79
2022/08/23 11:17:50;;;;;;;1.90;1.20;;;33.00;99.90;;;;;;5094028;28;20658;-78
2022/08/23 11:20:55;;;;;;;5.93;1.77;;;33.70;99.90;;;;;;5094880;28;20191;-77
2022/08/23 11:24:07;;;;;;;7.65;1.60;;;34.30;99.90;;;;;;5089505;28;20176;-77
2022/08/23 11:26:36;;;;;;;1.13;0.93;;;34.20;99.90;;;;;;5046472;28;20188;-76
2022/08/23 11:29:05;;;;;;;10.38;1.70;;;33.40;99.90;;;;;;5088146;28;20167;-76
2022/08/23 11:31:39;;;;;;;1.58;1.13;;;33.30;99.90;;;;;;5073888;28;20203;-78
2022/08/23 11:34:39;;;;;;;0.98;0.88;;;32.60;99.90;;;;;;5073738;28;20195;-77
2022/08/23 11:37:23;;;;;;;0.90;0.90;;;32.10;99.90;;;;;;5073856;28;20169;-76
2022/08/23 11:39:57;;;;;;;2.83;0.70;;;31.70;99.90;;;;;;5073621;28;20647;-76
2022/08/23 11:42:42;;;;;;;1.95;0.98;;;31.90;99.90;;;;;;5073399;28;20229;-76
2022/08/23 11:45:26;;;;;;;1.65;1.10;;;32.80;99.90;;;;;;5072345;28;20176;-76
2022/08/23 11:48:35;;;;;;;1.73;0.90;;;32.90;99.90;;;;;;5080114;28;20187;-76
2022/08/23 11:51:19;;;;;;;1.17;0.70;;;32.60;99.90;;;;;;5073495;28;20244;-76
2022/08/23 11:53:53;;;;;;;1.80;1.10;;;32.10;99.90;;;;;;5073659;28;20208;-76
2022/08/23 11:56:41;;;;;;;0.85;0.82;;;31.90;99.90;;;;;;5071593;28;20631;-75
2022/08/23 11:59:16;;;;;;;2.90;0.95;;;31.40;99.90;;;;;;5073347;28;20179;-75
2022/08/23 12:01:44;;;;;;;1.70;0.90;;;31.20;99.90;;;;;;5082008;28;20182;-75
2022/08/23 12:04:26;;;;;;;3.85;0.93;;;31.40;99.90;;;;;;5074393;28;20168;-75
2022/08/23 12:07:00;;;;;;;2.33;1.83;;;31.60;99.90;;;;;;5073495;28;20168;-76
2022/08/23 12:09:26;;;;;;;2.00;1.10;;;31.80;99.90;;;;;;5071601;28;20222;-76
2022/08/23 12:11:54;;;;;;;1.40;1.10;;;31.80;99.90;;;;;;5072690;28;20173;-75
2022/08/23 12:14:41;;;;;;;1.23;1.00;;;31.70;99.90;;;;;;5073241;28;20319;-75
2022/08/23 12:17:15;;;;;;;0.90;0.90;;;31.70;99.90;;;;;;5071482;28;20204;-75
2022/08/23 12:20:09;;;;;;;1.08;1.08;;;31.80;99.90;;;;;;5092746;28;20224;-76
2022/08/23 12:23:03;;;;;;;1.75;1.10;;;32.00;99.90;;;;;;5107722;28;20178;-77
2022/08/23 12:25:30;;;;;;;1.63;1.10;;;31.50;99.90;;;;;;5097725;28;20643;-76
2022/08/23 12:28:01;;;;;;;8.23;1.10;;;31.00;99.90;;;;;;5080618;28;20642;-76
2022/08/23 12:30:33;;;;;;;1.83;1.00;;;30.70;99.90;;;;;;5094211;28;20167;-76
2022/08/23 12:33:30;;;;;;;3.13;1.98;;;30.90;99.90;;;;;;5093333;27;20200;-77
2022/08/23 12:36:11;;;;;;;1.42;1.33;;;30.70;99.90;;;;;;5106577;28;20522;-77
2022/08/23 12:39:02;;;;;;;1.33;1.10;;;30.60;99.90;;;;;;5079676;28;20275;-76
2022/08/23 12:41:32;;;;;;;4.25;1.42;;;30.40;99.90;;;;;;5087044;28;20241;-76
2022/08/23 12:44:05;;;;;;;2.05;1.08;;;29.90;1.00;;;;;;5105326;28;20167;-75
2022/08/23 12:46:33;;;;;;;1.15;0.90;;;30.00;1.00;;;;;;5084224;28;20206;-75
2022/08/23 12:48:59;;;;;;;2.67;1.25;;;30.00;1.00;;;;;;5078818;28;20685;-75
2022/08/23 12:51:25;;;;;;;6.78;1.50;;;30.20;1.00;;;;;;5079856;28;20216;-76
2022/08/23 12:53:51;;;;;;;8.07;1.20;;;30.50;1.00;;;;;;5098565;28;20246;-75
2022/08/23 12:56:23;;;;;;;2.75;1.30;;;30.70;99.90;;;;;;5092028;28;20269;-75
2022/08/23 12:58:55;;;;;;;1.63;1.08;;;30.80;99.90;;;;;;5090770;28;20187;-74
2022/08/23 13:01:28;;;;;;;1.15;1.15;;;30.60;99.90;;;;;;5085292;28;20172;-75
2022/08/23 13:03:59;;;;;;;1.00;0.98;;;30.40;1.00;;;;;;5089947;28;20323;-75
2022/08/23 13:06:33;;;;;;;1.50;1.00;;;30.40;1.00;;;;;;5085853;28;20212;-76
2022/08/23 13:09:18;;;;;;;1.45;1.02;;;30.00;1.00;;;;;;5088598;28;20215;-75
2022/08/23 13:11:45;;;;;;;2.05;1.00;;;30.00;1.00;;;;;;5081926;28;20235;-75
2022/08/23 13:14:40;;;;;;;1.42;0.98;;;30.10;1.00;;;;;;5096095;28;20202;-75
2022/08/23 13:17:20;;;;;;;4.60;1.20;;;30.10;1.00;;;;;;5026515;28;20253;-75